createdAt,value
2019-04-06T00:00:35.963Z,99.99
2019-04-06T00:01:35.904Z,99.99
2019-04-06T00:02:35.893Z,99.99
2019-04-06T00:03:35.882Z,99.99
2019-04-06T00:04:35.893Z,99.99
2019-04-06T00:05:35.865Z,99.99
2019-04-06T00:06:35.858Z,99.99
2019-04-06T00:07:35.846Z,99.99
2019-04-06T00:08:35.836Z,99.99
2019-04-06T00:09:35.828Z,99.99
2019-04-06T00:10:35.821Z,99.99
2019-04-06T00:11:35.812Z,99.99
2019-04-06T00:12:37.056Z,99.99
2019-04-06T00:13:35.541Z,99.99
2019-04-06T00:14:35.782Z,99.99
2019-04-06T00:15:35.778Z,99.99
2019-04-06T00:16:35.856Z,99.99
2019-04-06T00:17:35.756Z,99.99
2019-04-06T00:18:35.747Z,99.99
2019-04-06T00:19:35.737Z,99.99
2019-04-06T00:20:35.728Z,99.99
2019-04-06T00:21:35.721Z,99.99
2019-04-06T00:22:35.738Z,99.99
2019-04-06T00:23:35.709Z,99.99
2019-04-06T00:24:35.694Z,99.99
2019-04-06T00:25:46.229Z,99.99
2019-04-06T00:26:35.421Z,99.99
2019-04-06T00:27:35.664Z,99.99
2019-04-06T00:28:35.661Z,99.99
2019-04-06T00:29:35.650Z,99.99
2019-04-06T00:30:35.691Z,99.99
2019-04-06T00:31:35.629Z,99.99
2019-04-06T00:32:35.618Z,99.99
2019-04-06T00:33:35.609Z,99.99
2019-04-06T00:34:35.607Z,99.99
2019-04-06T00:35:35.592Z,99.99
2019-04-06T00:36:35.584Z,99.99
2019-04-06T00:37:35.574Z,99.99
2019-04-06T00:38:36.444Z,99.99
2019-04-06T00:39:35.557Z,99.99
2019-04-06T00:40:35.546Z,99.99
2019-04-06T00:41:35.535Z,99.99
2019-04-06T00:42:35.529Z,99.99
2019-04-06T00:43:35.731Z,99.99
2019-04-06T00:44:35.506Z,99.99
2019-04-06T00:45:35.508Z,99.99
2019-04-06T00:46:35.491Z,99.99
2019-04-06T00:47:35.480Z,99.99
2019-04-06T00:48:35.470Z,99.99
2019-04-06T00:49:35.461Z,99.99
2019-04-06T00:50:35.454Z,99.99
2019-04-06T00:51:35.444Z,99.99
2019-04-06T00:52:35.434Z,99.99
2019-04-06T00:53:35.427Z,99.99
2019-04-06T00:54:35.418Z,99.99
2019-04-06T00:55:35.406Z,99.99
2019-04-06T00:56:35.402Z,99.99
2019-04-06T00:57:35.391Z,99.99
2019-04-06T00:58:35.415Z,99.99
2019-04-06T00:59:35.429Z,99.99
2019-04-06T01:00:35.369Z,99.99
2019-04-06T01:01:35.103Z,99.99
2019-04-06T01:02:35.353Z,99.99
2019-04-06T01:03:35.333Z,99.99
2019-04-06T01:04:35.330Z,99.99
2019-04-06T01:05:35.316Z,99.99
2019-04-06T01:06:35.306Z,99.99
2019-04-06T01:07:35.299Z,99.99
2019-04-06T01:08:35.288Z,99.99
2019-04-06T01:09:35.278Z,99.99
2019-04-06T01:10:35.289Z,99.99
2019-04-06T01:11:35.258Z,99.99
2019-04-06T01:12:35.253Z,99.99
2019-04-06T01:13:35.316Z,99.99
2019-04-06T01:14:35.235Z,99.99
2019-04-06T01:15:35.222Z,99.99
2019-04-06T01:16:35.249Z,99.99
2019-04-06T01:17:35.204Z,99.99
2019-04-06T01:18:35.201Z,99.99
2019-04-06T01:19:35.271Z,99.99
2019-04-06T01:20:35.181Z,99.99
2019-04-06T01:21:35.191Z,99.99
2019-04-06T01:22:35.158Z,99.99
2019-04-06T01:23:35.150Z,99.99
2019-04-06T01:24:35.140Z,99.99
2019-04-06T01:25:35.170Z,99.99
2019-04-06T01:26:35.120Z,99.99
2019-04-06T01:27:35.112Z,99.99
2019-04-06T01:28:35.101Z,99.99
2019-04-06T01:29:35.092Z,99.99
2019-04-06T01:30:35.136Z,99.99
2019-04-06T01:31:35.141Z,99.99
2019-04-06T01:32:35.145Z,99.99
2019-04-06T01:33:35.057Z,99.99
2019-04-06T01:34:35.046Z,99.99
2019-04-06T01:35:35.038Z,99.99
2019-04-06T01:36:35.030Z,99.99
2019-04-06T01:37:35.220Z,99.99
2019-04-06T01:38:35.119Z,99.99
2019-04-06T01:39:35.000Z,99.99
2019-04-06T01:40:34.991Z,99.99
2019-04-06T01:41:34.981Z,99.99
2019-04-06T01:42:34.974Z,99.99
2019-04-06T01:43:34.963Z,99.99
2019-04-06T01:44:34.965Z,99.99
2019-04-06T01:45:34.947Z,99.99
2019-04-06T01:46:34.976Z,99.99
2019-04-06T01:47:34.925Z,99.99
2019-04-06T01:48:34.917Z,99.99
2019-04-06T01:49:34.907Z,99.99
2019-04-06T01:50:34.913Z,99.99
2019-04-06T01:51:34.887Z,99.99
2019-04-06T01:52:34.878Z,99.99
2019-04-06T01:53:34.872Z,99.99
2019-04-06T01:54:34.861Z,99.99
2019-04-06T01:55:34.851Z,99.99
2019-04-06T01:56:34.844Z,99.99
2019-04-06T01:57:34.832Z,99.99
2019-04-06T01:58:34.821Z,99.99
2019-04-06T01:59:34.814Z,99.99
2019-04-06T02:00:34.816Z,99.99
2019-04-06T02:01:34.869Z,99.99
2019-04-06T02:02:34.863Z,99.99
2019-04-06T02:03:34.852Z,99.99
2019-04-06T02:04:34.767Z,99.99
2019-04-06T02:05:34.762Z,99.99
2019-04-06T02:06:34.747Z,99.99
2019-04-06T02:07:34.753Z,99.99
2019-04-06T02:08:34.915Z,99.99
2019-04-06T02:09:34.721Z,99.99
2019-04-06T02:10:34.710Z,99.99
2019-04-06T02:11:34.701Z,99.99
2019-04-06T02:12:34.713Z,99.99
2019-04-06T02:13:34.684Z,99.99
2019-04-06T02:14:34.781Z,99.99
2019-04-06T02:15:34.782Z,99.99
2019-04-06T02:16:34.656Z,99.99
2019-04-06T02:17:34.398Z,99.99
2019-04-06T02:18:34.639Z,99.99
2019-04-06T02:19:34.626Z,99.99
2019-04-06T02:20:34.620Z,99.99
2019-04-06T02:21:34.608Z,99.99
2019-04-06T02:22:34.703Z,99.99
2019-04-06T02:23:34.687Z,99.99
2019-04-06T02:24:34.577Z,99.99
2019-04-06T02:25:34.573Z,99.99
2019-04-06T02:26:34.563Z,99.99
2019-04-06T02:27:34.555Z,99.99
2019-04-06T02:28:34.569Z,99.99
2019-04-06T02:29:34.615Z,99.99
2019-04-06T02:30:34.590Z,99.99
2019-04-06T02:31:34.522Z,99.99
2019-04-06T02:32:34.509Z,99.99
2019-04-06T02:33:34.496Z,99.99
2019-04-06T02:34:34.492Z,99.99
2019-04-06T02:35:34.500Z,99.99
2019-04-06T02:36:34.470Z,99.99
2019-04-06T02:37:34.547Z,99.99
2019-04-06T02:38:34.452Z,99.99
2019-04-06T02:39:34.193Z,99.99
2019-04-06T02:40:34.576Z,99.99
2019-04-06T02:41:34.443Z,99.99
2019-04-06T02:42:34.431Z,99.99
2019-04-06T02:43:34.406Z,99.99
2019-04-06T02:44:34.396Z,99.99
2019-04-06T02:45:34.418Z,99.99
2019-04-06T02:46:34.387Z,99.99
2019-04-06T02:47:34.370Z,99.99
2019-04-06T02:48:34.684Z,99.99
2019-04-06T02:49:34.483Z,99.99
2019-04-06T02:50:34.434Z,99.99
2019-04-06T02:51:34.105Z,99.99
2019-04-06T02:52:34.326Z,99.99
2019-04-06T02:53:34.644Z,99.99
2019-04-06T02:54:34.414Z,99.99
2019-04-06T02:55:34.296Z,99.99
2019-04-06T02:56:48.017Z,99.99
2019-04-06T02:57:34.315Z,99.99
2019-04-06T02:58:34.268Z,99.99
2019-04-06T02:59:34.444Z,99.99
2019-04-06T03:00:34.423Z,99.99
2019-04-06T03:01:34.300Z,99.99
2019-04-06T03:02:34.226Z,99.99
2019-04-06T03:03:34.220Z,99.99
2019-04-06T03:04:34.215Z,99.99
2019-04-06T03:05:34.236Z,99.99
2019-04-06T03:06:34.188Z,99.99
2019-04-06T03:07:34.181Z,99.99
2019-04-06T03:08:34.167Z,99.99
2019-04-06T03:09:34.377Z,99.99
2019-04-06T03:10:34.163Z,99.99
2019-04-06T03:11:34.140Z,99.99
2019-04-06T03:12:34.129Z,99.99
2019-04-06T03:13:34.137Z,99.99
2019-04-06T03:14:34.120Z,99.99
2019-04-06T03:15:34.103Z,99.99
2019-04-06T03:16:34.094Z,99.99
2019-04-06T03:17:34.093Z,99.99
2019-04-06T03:18:34.080Z,99.99
2019-04-06T03:19:34.069Z,99.99
2019-04-06T03:20:34.230Z,99.99
2019-04-06T03:21:34.048Z,99.99
2019-04-06T03:22:34.046Z,99.99
2019-04-06T03:23:49.000Z,99.99
2019-04-06T03:24:34.022Z,99.99
2019-04-06T03:25:34.022Z,99.99
2019-04-06T03:26:34.010Z,99.99
2019-04-06T03:27:33.991Z,99.99
2019-04-06T03:28:34.127Z,99.99
2019-04-06T03:29:33.972Z,99.99
2019-04-06T03:30:33.992Z,99.99
2019-04-06T03:31:34.206Z,99.99
2019-04-06T03:32:33.944Z,99.99
2019-04-06T03:33:33.948Z,99.99
2019-04-06T03:34:33.941Z,99.99
2019-04-06T03:35:34.024Z,99.99
2019-04-06T03:36:34.019Z,99.99
2019-04-06T03:37:34.152Z,99.99
2019-04-06T03:38:33.885Z,99.99
2019-04-06T03:39:33.878Z,99.99
2019-04-06T03:40:33.868Z,99.99
2019-04-06T03:41:34.082Z,99.99
2019-04-06T03:42:33.846Z,99.99
2019-04-06T03:43:33.837Z,99.99
2019-04-06T03:44:34.118Z,99.99
2019-04-06T03:45:33.941Z,99.99
2019-04-06T03:46:33.808Z,99.99
2019-04-06T03:47:34.058Z,99.99
2019-04-06T03:48:33.800Z,99.99
2019-04-06T03:49:33.781Z,99.99
2019-04-06T03:50:33.774Z,99.99
2019-04-06T03:51:33.761Z,99.99
2019-04-06T03:52:33.845Z,99.99
2019-04-06T03:53:33.742Z,99.99
2019-04-06T03:54:33.733Z,99.99
2019-04-06T03:55:33.725Z,99.99
2019-04-06T03:56:33.716Z,99.99
2019-04-06T03:57:33.701Z,99.99
2019-04-06T03:58:33.894Z,99.99
2019-04-06T03:59:33.694Z,99.99
2019-04-06T04:00:33.853Z,99.99
2019-04-06T04:01:33.666Z,99.99
2019-04-06T04:02:33.654Z,99.99
2019-04-06T04:03:33.650Z,99.99
2019-04-06T04:04:33.638Z,99.99
2019-04-06T04:05:33.910Z,99.99
2019-04-06T04:06:34.846Z,99.99
2019-04-06T04:07:33.626Z,99.99
2019-04-06T04:08:33.628Z,99.99
2019-04-06T04:09:33.611Z,99.99
2019-04-06T04:10:33.600Z,99.99
2019-04-06T04:11:33.572Z,99.99
2019-04-06T04:12:33.759Z,99.99
2019-04-06T04:13:33.566Z,99.99
2019-04-06T04:14:33.602Z,99.99
2019-04-06T04:15:33.669Z,99.99
2019-04-06T04:16:33.531Z,99.99
2019-04-06T04:17:33.832Z,99.99
2019-04-06T04:18:33.762Z,99.99
2019-04-06T04:19:33.496Z,99.99
2019-04-06T04:20:33.491Z,99.99
2019-04-06T04:21:33.478Z,99.99
2019-04-06T04:22:34.999Z,99.99
2019-04-06T04:23:33.460Z,99.99
2019-04-06T04:24:33.458Z,99.99
2019-04-06T04:25:33.775Z,99.99
2019-04-06T04:26:33.435Z,99.99
2019-04-06T04:27:33.552Z,99.99
2019-04-06T04:28:33.466Z,99.99
2019-04-06T04:29:33.419Z,99.99
2019-04-06T04:30:36.369Z,99.99
2019-04-06T04:31:33.385Z,99.99
2019-04-06T04:32:33.583Z,99.99
2019-04-06T04:33:33.389Z,99.99
2019-04-06T04:34:33.364Z,99.99
2019-04-06T04:35:33.633Z,99.99
2019-04-06T04:36:33.493Z,99.99
2019-04-06T04:37:33.507Z,99.99
2019-04-06T04:38:33.320Z,99.99
2019-04-06T04:39:33.543Z,99.99
2019-04-06T04:40:33.533Z,99.99
2019-04-06T04:41:33.284Z,99.99
2019-04-06T04:42:33.549Z,99.99
2019-04-06T04:43:33.353Z,99.99
2019-04-06T04:44:33.259Z,99.99
2019-04-06T04:45:33.485Z,99.99
2019-04-06T04:46:33.239Z,99.99
2019-04-06T04:47:33.239Z,99.99
2019-04-06T04:48:33.220Z,99.99
2019-04-06T04:49:33.211Z,99.99
2019-04-06T04:50:33.481Z,99.99
2019-04-06T04:51:33.391Z,99.99
2019-04-06T04:52:33.278Z,99.99
2019-04-06T04:53:33.171Z,99.99
2019-04-06T04:54:33.162Z,99.99
2019-04-06T04:55:33.150Z,99.99
2019-04-06T04:56:33.251Z,99.99
2019-04-06T04:57:44.963Z,99.99
2019-04-06T04:58:33.134Z,99.99
2019-04-06T04:59:33.306Z,99.99
2019-04-06T05:00:33.113Z,99.99
2019-04-06T05:01:33.093Z,99.99
2019-04-06T05:02:33.084Z,99.99
2019-04-06T05:03:33.199Z,99.99
2019-04-06T05:04:33.091Z,99.99
2019-04-06T05:05:33.054Z,99.99
2019-04-06T05:06:33.047Z,99.99
2019-04-06T05:07:33.038Z,99.99
2019-04-06T05:08:33.184Z,99.99
2019-04-06T05:09:33.017Z,99.99
2019-04-06T05:10:33.006Z,99.99
2019-04-06T05:11:33.012Z,99.99
2019-04-06T05:12:32.988Z,99.99
2019-04-06T05:13:32.977Z,99.99
2019-04-06T05:14:32.971Z,99.99
2019-04-06T05:15:32.962Z,99.99
2019-04-06T05:16:32.954Z,99.99
2019-04-06T05:17:32.946Z,99.99
2019-04-06T05:18:32.934Z,99.99
2019-04-06T05:19:32.919Z,99.99
2019-04-06T05:20:32.926Z,99.99
2019-04-06T05:21:32.923Z,99.99
2019-04-06T05:22:32.979Z,99.99
2019-04-06T05:23:32.882Z,99.99
2019-04-06T05:24:32.624Z,99.99
2019-04-06T05:25:32.861Z,99.99
2019-04-06T05:26:40.359Z,99.99
2019-04-06T05:27:32.901Z,99.99
2019-04-06T05:28:32.835Z,99.99
2019-04-06T05:29:33.281Z,99.99
2019-04-06T05:30:32.816Z,99.99
2019-04-06T05:31:32.805Z,99.99
2019-04-06T05:32:32.806Z,99.99
2019-04-06T05:33:32.893Z,99.99
2019-04-06T05:34:32.782Z,99.99
2019-04-06T05:35:32.775Z,99.99
2019-04-06T05:36:32.883Z,99.99
2019-04-06T05:37:32.764Z,99.99
2019-04-06T05:38:32.737Z,99.99
2019-04-06T05:39:32.728Z,99.99
2019-04-06T05:40:32.722Z,99.99
2019-04-06T05:41:32.757Z,99.99
2019-04-06T05:42:32.731Z,99.99
2019-04-06T05:43:32.692Z,99.99
2019-04-06T05:44:32.690Z,99.99
2019-04-06T05:45:32.719Z,99.99
2019-04-06T05:46:32.664Z,99.99
2019-04-06T05:47:32.658Z,99.99
2019-04-06T05:48:32.645Z,99.99
2019-04-06T05:49:32.636Z,99.99
2019-04-06T05:50:32.628Z,99.99
2019-04-06T05:51:32.542Z,99.99
2019-04-06T05:52:32.682Z,99.99
2019-04-06T05:53:32.683Z,99.99
2019-04-06T05:54:32.587Z,99.99
2019-04-06T05:55:32.877Z,99.99
2019-04-06T05:56:32.749Z,99.99
2019-04-06T05:57:37.157Z,99.99
2019-04-06T05:58:32.776Z,99.99
2019-04-06T05:59:32.544Z,99.99
2019-04-06T06:00:32.530Z,99.99
2019-04-06T06:01:32.518Z,99.99
2019-04-06T06:02:32.513Z,99.99
2019-04-06T06:03:32.659Z,99.99
2019-04-06T06:04:32.677Z,99.99
2019-04-06T06:05:32.503Z,99.99
2019-04-06T06:06:32.751Z,99.99
2019-04-06T06:07:32.463Z,99.99
2019-04-06T06:08:33.158Z,99.99
2019-04-06T06:09:32.445Z,99.99
2019-04-06T06:10:32.434Z,99.99
2019-04-06T06:11:32.425Z,99.99
2019-04-06T06:12:32.461Z,99.99
2019-04-06T06:13:32.411Z,99.99
2019-04-06T06:14:32.396Z,99.99
2019-04-06T06:15:32.402Z,99.99
2019-04-06T06:16:32.537Z,99.99
2019-04-06T06:17:32.375Z,99.99
2019-04-06T06:18:32.108Z,99.99
2019-04-06T06:19:32.349Z,99.99
2019-04-06T06:20:32.374Z,99.99
2019-04-06T06:21:32.333Z,99.99
2019-04-06T06:22:32.369Z,99.99
2019-04-06T06:23:32.405Z,99.99
2019-04-06T06:24:34.585Z,99.99
2019-04-06T06:25:32.307Z,99.99
2019-04-06T06:26:33.814Z,99.99
2019-04-06T06:27:32.275Z,99.99
2019-04-06T06:28:32.268Z,99.99
2019-04-06T06:29:32.521Z,99.99
2019-04-06T06:30:32.245Z,99.99
2019-04-06T06:31:32.238Z,99.99
2019-04-06T06:32:33.735Z,99.99
2019-04-06T06:33:32.219Z,99.99
2019-04-06T06:34:32.208Z,99.99
2019-04-06T06:35:32.278Z,99.99
2019-04-06T06:36:32.436Z,99.99
2019-04-06T06:37:32.178Z,99.99
2019-04-06T06:38:32.172Z,99.99
2019-04-06T06:39:32.166Z,99.99
2019-04-06T06:40:32.248Z,99.86
2019-04-06T06:41:32.366Z,99.58
2019-04-06T06:42:32.141Z,99.48
2019-04-06T06:43:32.125Z,99.48
2019-04-06T06:44:32.134Z,99.53
2019-04-06T06:45:32.104Z,99.53
2019-04-06T06:46:32.258Z,99.44
2019-04-06T06:47:32.243Z,99.25
2019-04-06T06:48:32.083Z,99.25
2019-04-06T06:49:32.242Z,99.06
2019-04-06T06:50:34.285Z,98.68
2019-04-06T06:51:32.051Z,98.49
2019-04-06T06:52:32.042Z,98.02
2019-04-06T06:53:31.776Z,97.26
2019-04-06T06:54:32.117Z,96.97
2019-04-06T06:55:31.760Z,96.97
2019-04-06T06:56:32.148Z,96.92
2019-04-06T06:57:33.244Z,96.36
2019-04-06T06:58:31.988Z,95.88
2019-04-06T06:59:31.975Z,95.69
2019-04-06T07:00:31.963Z,95.69
2019-04-06T07:01:31.957Z,95.74
2019-04-06T07:02:31.947Z,96.03
2019-04-06T07:03:31.938Z,96.5
2019-04-06T07:04:31.944Z,96.64
2019-04-06T07:05:31.919Z,96.45
2019-04-06T07:06:31.908Z,96.45
2019-04-06T07:07:31.954Z,96.64
2019-04-06T07:08:31.892Z,96.73
2019-04-06T07:09:32.014Z,96.55
2019-04-06T07:10:32.023Z,96.45
2019-04-06T07:11:31.968Z,95.88
2019-04-06T07:12:31.857Z,95.31
2019-04-06T07:13:32.047Z,95.31
2019-04-06T07:14:31.867Z,95.88
2019-04-06T07:15:31.933Z,96.83
2019-04-06T07:16:31.819Z,97.88
2019-04-06T07:17:32.013Z,98.39
2019-04-06T07:18:31.956Z,99.25
2019-04-06T07:19:31.793Z,99.82
2019-04-06T07:20:31.787Z,99.99
2019-04-06T07:21:31.771Z,99.99
2019-04-06T07:22:31.764Z,99.99
2019-04-06T07:23:31.861Z,99.99
2019-04-06T07:24:31.802Z,99.99
2019-04-06T07:25:31.481Z,99.99
2019-04-06T07:26:31.724Z,99.99
2019-04-06T07:27:31.717Z,99.99
2019-04-06T07:28:40.516Z,99.99
2019-04-06T07:29:31.714Z,99.99
2019-04-06T07:30:31.689Z,99.99
2019-04-06T07:31:31.812Z,99.99
2019-04-06T07:32:31.744Z,99.99
2019-04-06T07:33:31.660Z,99.99
2019-04-06T07:34:31.652Z,99.99
2019-04-06T07:35:31.650Z,99.99
2019-04-06T07:36:31.635Z,99.99
2019-04-06T07:37:31.625Z,99.99
2019-04-06T07:38:31.365Z,99.99
2019-04-06T07:39:31.606Z,99.54
2019-04-06T07:40:31.597Z,99.02
2019-04-06T07:41:31.830Z,98.26
2019-04-06T07:42:31.584Z,97.6
2019-04-06T07:43:31.773Z,96.83
2019-04-06T07:44:31.561Z,96.64
2019-04-06T07:45:31.549Z,96.45
2019-04-06T07:46:31.551Z,95.98
2019-04-06T07:47:31.592Z,95.79
2019-04-06T07:48:31.529Z,95.27
2019-04-06T07:49:31.565Z,94.7
2019-04-06T07:50:31.508Z,94.23
2019-04-06T07:51:31.613Z,94.03
2019-04-06T07:52:31.489Z,93.75
2019-04-06T07:53:31.591Z,93.23
2019-04-06T07:54:31.621Z,92.66
2019-04-06T07:55:31.644Z,92.18
2019-04-06T07:56:31.451Z,91.61
2019-04-06T07:57:31.440Z,90.85
2019-04-06T07:58:31.718Z,90.37
2019-04-06T07:59:31.544Z,89.56
2019-04-06T08:00:31.578Z,89.09
2019-04-06T08:01:31.504Z,88.42
2019-04-06T08:02:31.579Z,87.85
2019-04-06T08:03:31.647Z,87.47
2019-04-06T08:04:31.649Z,87.19
2019-04-06T08:05:31.371Z,86.52
2019-04-06T08:06:31.657Z,86.05
2019-04-06T08:07:31.409Z,85.57
2019-04-06T08:08:31.700Z,85.66
2019-04-06T08:09:31.343Z,85.19
2019-04-06T08:10:31.329Z,84.81
2019-04-06T08:11:31.512Z,84.91
2019-04-06T08:12:31.113Z,84.72
2019-04-06T08:13:31.295Z,84.52
2019-04-06T08:14:31.559Z,84.43
2019-04-06T08:15:31.282Z,83.95
2019-04-06T08:16:31.373Z,83.76
2019-04-06T08:17:31.260Z,83.67
2019-04-06T08:18:31.377Z,83.48
2019-04-06T08:19:31.244Z,83.42
2019-04-06T08:20:31.234Z,83.23
2019-04-06T08:21:31.419Z,83.04
2019-04-06T08:22:31.463Z,82.57
2019-04-06T08:23:31.206Z,82.28
2019-04-06T08:24:31.196Z,82.19
2019-04-06T08:25:31.352Z,81.81
2019-04-06T08:26:31.246Z,81.14
2019-04-06T08:27:31.411Z,80.66
2019-04-06T08:28:31.170Z,80.66
2019-04-06T08:29:31.601Z,81.29
2019-04-06T08:30:31.197Z,81.96
2019-04-06T08:31:32.040Z,82.24
2019-04-06T08:32:31.015Z,82.71
2019-04-06T08:33:31.118Z,83.19
2019-04-06T08:34:31.239Z,83.67
2019-04-06T08:35:31.102Z,84.24
2019-04-06T08:36:31.366Z,84.95
2019-04-06T08:37:31.272Z,85.81
2019-04-06T08:38:31.073Z,86.57
2019-04-06T08:39:31.146Z,86.38
2019-04-06T08:40:31.131Z,86.47
2019-04-06T08:41:31.048Z,87.43
2019-04-06T08:42:31.038Z,88.38
2019-04-06T08:43:31.132Z,88.85
2019-04-06T08:44:31.185Z,87.76
2019-04-06T08:45:31.019Z,86.8
2019-04-06T08:46:31.002Z,85.95
2019-04-06T08:47:31.003Z,86.14
2019-04-06T08:48:30.990Z,87.09
2019-04-06T08:49:30.982Z,87.38
2019-04-06T08:50:31.256Z,87.09
2019-04-06T08:51:31.022Z,86.9
2019-04-06T08:52:31.114Z,87.19
2019-04-06T08:53:31.114Z,87.66
2019-04-06T08:54:30.934Z,87.66
2019-04-06T08:55:30.934Z,88.04
2019-04-06T08:56:31.236Z,88.04
2019-04-06T08:57:30.906Z,87.19
2019-04-06T08:58:30.910Z,87.09
2019-04-06T08:59:30.891Z,86.99
2019-04-06T09:00:30.880Z,85.95
2019-04-06T09:01:31.105Z,85.47
2019-04-06T09:02:31.256Z,85.66
2019-04-06T09:03:30.856Z,85.47
2019-04-06T09:04:30.856Z,85.24
2019-04-06T09:05:30.839Z,84.76
2019-04-06T09:06:30.673Z,84.38
2019-04-06T09:07:30.822Z,84.66
2019-04-06T09:08:30.937Z,84.76
2019-04-06T09:09:30.972Z,84.38
2019-04-06T09:10:30.819Z,83.9
2019-04-06T09:11:30.782Z,83.62
2019-04-06T09:12:30.772Z,83.42
2019-04-06T09:13:31.037Z,82.67
2019-04-06T09:14:30.758Z,83.42
2019-04-06T09:15:30.744Z,84.76
2019-04-06T09:16:30.744Z,85.33
2019-04-06T09:17:30.774Z,85.24
2019-04-06T09:18:31.616Z,85.33
2019-04-06T09:19:30.891Z,85.33
2019-04-06T09:20:30.745Z,84.66
2019-04-06T09:21:30.849Z,84.19
2019-04-06T09:22:30.915Z,83.71
2019-04-06T09:23:30.712Z,83.33
2019-04-06T09:24:30.676Z,83.33
2019-04-06T09:25:30.660Z,83.33
2019-04-06T09:26:30.648Z,82.8
2019-04-06T09:27:30.925Z,82.42
2019-04-06T09:28:30.785Z,82.04
2019-04-06T09:29:30.705Z,81.37
2019-04-06T09:30:30.629Z,81.95
2019-04-06T09:31:30.601Z,82.42
2019-04-06T09:32:30.593Z,82.8
2019-04-06T09:33:30.584Z,82.61
2019-04-06T09:34:33.534Z,81.41
2019-04-06T09:35:30.587Z,81.03
2019-04-06T09:36:30.570Z,80.46
2019-04-06T09:37:30.305Z,79.22
2019-04-06T09:38:30.735Z,78.85
2019-04-06T09:39:30.754Z,78.31
2019-04-06T09:40:31.052Z,77.83
2019-04-06T09:41:30.598Z,77.17
2019-04-06T09:42:30.698Z,75.55
2019-04-06T09:43:30.495Z,74.21
2019-04-06T09:44:30.743Z,74.79
2019-04-06T09:45:30.720Z,73.07
2019-04-06T09:46:30.590Z,71.64
2019-04-06T09:47:31.466Z,71.17
2019-04-06T09:48:30.450Z,70.02
2019-04-06T09:49:30.554Z,69.48
2019-04-06T09:50:30.437Z,68.53
2019-04-06T09:51:30.425Z,66.34
2019-04-06T09:52:30.415Z,65.61
2019-04-06T09:53:32.937Z,64.47
2019-04-06T09:54:30.398Z,63.51
2019-04-06T09:55:30.388Z,63.23
2019-04-06T09:56:30.394Z,62.27
2019-04-06T09:57:30.475Z,61.99
2019-04-06T09:58:30.364Z,61.32
2019-04-06T09:59:38.283Z,60.87
2019-04-06T10:00:30.345Z,59.63
2019-04-06T10:01:40.542Z,57.72
2019-04-06T10:02:30.334Z,57.92
2019-04-06T10:03:30.321Z,58.2
2019-04-06T10:04:30.312Z,58.2
2019-04-06T10:05:30.856Z,58.11
2019-04-06T10:06:32.213Z,58.29
2019-04-06T10:07:30.289Z,58.48
2019-04-06T10:08:30.279Z,58.11
2019-04-06T10:09:30.531Z,57.85
2019-04-06T10:10:30.280Z,57.46
2019-04-06T10:11:30.293Z,56.41
2019-04-06T10:12:30.244Z,54.89
2019-04-06T10:13:30.236Z,53.74
2019-04-06T10:14:30.224Z,54.22
2019-04-06T10:15:30.449Z,54.5
2019-04-06T10:16:30.489Z,54.41
2019-04-06T10:17:30.471Z,53.84
2019-04-06T10:18:30.194Z,52.79
2019-04-06T10:19:30.321Z,52.31
2019-04-06T10:20:30.188Z,51.64
2019-04-06T10:21:30.169Z,51.35
2019-04-06T10:22:30.159Z,51.57
2019-04-06T10:23:30.394Z,51
2019-04-06T10:24:30.147Z,50.14
2019-04-06T10:25:30.135Z,49.47
2019-04-06T10:26:30.126Z,49.18
2019-04-06T10:27:30.120Z,48.99
2019-04-06T10:28:30.117Z,48.71
2019-04-06T10:29:30.100Z,48.9
2019-04-06T10:30:30.320Z,49.28
2019-04-06T10:31:30.087Z,50.04
2019-04-06T10:32:30.077Z,50.9
2019-04-06T10:33:30.068Z,51.38
2019-04-06T10:34:30.235Z,51.7
2019-04-06T10:35:30.312Z,51.89
2019-04-06T10:36:31.708Z,52.17
2019-04-06T10:37:30.037Z,52.55
2019-04-06T10:38:30.025Z,52.94
2019-04-06T10:39:30.016Z,52.65
2019-04-06T10:40:30.009Z,52.65
2019-04-06T10:41:29.999Z,52.55
2019-04-06T10:42:31.764Z,51.5
2019-04-06T10:43:29.987Z,51.31
2019-04-06T10:44:30.207Z,51.6
2019-04-06T10:45:30.176Z,51.98
2019-04-06T10:46:29.961Z,52.26
2019-04-06T10:47:29.952Z,52.77
2019-04-06T10:48:29.956Z,52.01
2019-04-06T10:49:29.959Z,51.91
2019-04-06T10:50:29.929Z,52.39
2019-04-06T10:51:29.924Z,52.48
2019-04-06T10:52:29.912Z,52.58
2019-04-06T10:53:29.904Z,52.67
2019-04-06T10:54:30.175Z,52.58
2019-04-06T10:55:29.885Z,52.01
2019-04-06T10:56:29.957Z,51.91
2019-04-06T10:57:30.158Z,52.13
2019-04-06T10:58:30.117Z,51.84
2019-04-06T10:59:29.857Z,51.65
2019-04-06T11:00:29.914Z,51.07
2019-04-06T11:01:29.837Z,50.98
2019-04-06T11:02:30.155Z,50.98
2019-04-06T11:03:30.043Z,50.79
2019-04-06T11:04:29.851Z,50.6
2019-04-06T11:05:29.944Z,49.93
2019-04-06T11:06:29.570Z,49.45
2019-04-06T11:07:30.066Z,49.26
2019-04-06T11:08:29.782Z,48.49
2019-04-06T11:09:29.772Z,48.88
2019-04-06T11:10:29.801Z,49.26
2019-04-06T11:11:29.828Z,49.8
2019-04-06T11:12:29.755Z,50.29
2019-04-06T11:13:29.751Z,50.67
2019-04-06T11:14:29.971Z,50.95
2019-04-06T11:15:29.734Z,51.53
2019-04-06T11:16:29.724Z,50.48
2019-04-06T11:17:29.717Z,50.48
2019-04-06T11:18:29.704Z,50.19
2019-04-06T11:19:29.694Z,50.19
2019-04-06T11:20:30.103Z,50.57
2019-04-06T11:21:30.095Z,50.41
2019-04-06T11:22:30.046Z,50.21
2019-04-06T11:23:29.859Z,50.41
2019-04-06T11:24:29.653Z,50.12
2019-04-06T11:25:29.647Z,49.74
2019-04-06T11:26:29.386Z,49.26
2019-04-06T11:27:29.630Z,48.3
2019-04-06T11:28:29.622Z,47.63
2019-04-06T11:29:29.616Z,47.73
2019-04-06T11:30:29.607Z,47.44
2019-04-06T11:31:29.602Z,46.96
2019-04-06T11:32:29.853Z,46.58
2019-04-06T11:33:29.587Z,46.61
2019-04-06T11:34:29.582Z,46.89
2019-04-06T11:35:29.781Z,46.89
2019-04-06T11:36:29.864Z,47.18
2019-04-06T11:37:29.796Z,46.98
2019-04-06T11:38:29.546Z,46.51
2019-04-06T11:39:29.537Z,46.61
2019-04-06T11:40:29.542Z,46.61
2019-04-06T11:41:29.771Z,46.31
2019-04-06T11:42:29.513Z,46.61
2019-04-06T11:43:29.633Z,47.37
2019-04-06T11:44:29.504Z,47.27
2019-04-06T11:45:29.492Z,47.47
2019-04-06T11:46:29.482Z,47.08
2019-04-06T11:47:29.752Z,47.18
2019-04-06T11:48:29.478Z,47.27
2019-04-06T11:49:29.459Z,47.37
2019-04-06T11:50:29.663Z,46.61
2019-04-06T11:51:29.445Z,45.65
2019-04-06T11:52:29.433Z,44.88
2019-04-06T11:53:29.831Z,43.63
2019-04-06T11:54:29.647Z,43.16
2019-04-06T11:55:29.423Z,43.8
2019-04-06T11:56:29.298Z,44.76
2019-04-06T11:57:29.536Z,44.67
2019-04-06T11:58:29.494Z,44.86
2019-04-06T11:59:29.382Z,44.4
2019-04-06T12:00:30.256Z,42.77
2019-04-06T12:01:29.383Z,41.82
2019-04-06T12:02:29.711Z,42.58
2019-04-06T12:03:29.367Z,43.26
2019-04-06T12:04:29.573Z,43.44
2019-04-06T12:05:29.631Z,42.87
2019-04-06T12:06:29.328Z,42.6
2019-04-06T12:07:29.635Z,42.41
2019-04-06T12:08:29.313Z,42.22
2019-04-06T12:09:29.666Z,41.84
2019-04-06T12:10:29.053Z,41.74
2019-04-06T12:11:29.546Z,41.55
2019-04-06T12:12:29.425Z,41.36
2019-04-06T12:13:29.273Z,40.9
2019-04-06T12:14:29.576Z,40.14
2019-04-06T12:15:29.259Z,40.14
2019-04-06T12:16:29.254Z,40.61
2019-04-06T12:17:29.243Z,40.61
2019-04-06T12:18:29.371Z,39.28
2019-04-06T12:19:29.511Z,38.6
2019-04-06T12:20:29.399Z,38.51
2019-04-06T12:21:29.403Z,38.6
2019-04-06T12:22:29.391Z,38.89
2019-04-06T12:23:29.841Z,39.47
2019-04-06T12:24:29.393Z,39.37
2019-04-06T12:25:29.607Z,39.18
2019-04-06T12:26:29.178Z,38.98
2019-04-06T12:27:29.183Z,38.22
2019-04-06T12:28:29.163Z,38.89
2019-04-06T12:29:29.152Z,39.94
2019-04-06T12:30:40.199Z,40.61
2019-04-06T12:31:29.139Z,39.65
2019-04-06T12:32:29.131Z,39.85
2019-04-06T12:33:29.126Z,40.41
2019-04-06T12:34:29.499Z,41.36
2019-04-06T12:35:29.157Z,41.46
2019-04-06T12:36:29.100Z,42.32
2019-04-06T12:37:28.840Z,41.46
2019-04-06T12:38:29.085Z,42.13
2019-04-06T12:39:29.344Z,42.7
2019-04-06T12:40:29.160Z,43.37
2019-04-06T12:41:29.565Z,43.27
2019-04-06T12:42:29.058Z,43.27
2019-04-06T12:43:31.147Z,43.18
2019-04-06T12:44:29.149Z,42.44
2019-04-06T12:45:29.047Z,41.19
2019-04-06T12:46:29.304Z,39.75
2019-04-06T12:47:29.083Z,39.37
2019-04-06T12:48:29.011Z,40.04
2019-04-06T12:49:29.123Z,40.9
2019-04-06T12:50:28.996Z,41.57
2019-04-06T12:51:28.987Z,41.6
2019-04-06T12:52:29.215Z,41.88
2019-04-06T12:53:28.974Z,42.07